sensor_id;sensor_type;location;lat;lon;timestamp;P1;durP1;ratioP1;P2;durP2;ratioP2
31206;SDS011;17834;52.992;8.856;2023-02-11T00:01:49;58.33;;;25.02;;
31206;SDS011;17834;52.992;8.856;2023-02-11T00:04:15;55.90;;;22.92;;
31206;SDS011;17834;52.992;8.856;2023-02-11T00:06:41;57.13;;;23.77;;
31206;SDS011;17834;52.992;8.856;2023-02-11T00:09:08;60.28;;;24.63;;
31206;SDS011;17834;52.992;8.856;2023-02-11T00:11:35;61.88;;;24.08;;
31206;SDS011;17834;52.992;8.856;2023-02-11T00:14:02;52.35;;;23.42;;
31206;SDS011;17834;52.992;8.856;2023-02-11T00:16:28;62.53;;;23.45;;
31206;SDS011;17834;52.992;8.856;2023-02-11T00:18:55;55.10;;;22.15;;
31206;SDS011;17834;52.992;8.856;2023-02-11T00:21:23;59.67;;;21.67;;
31206;SDS011;17834;52.992;8.856;2023-02-11T00:23:49;57.33;;;23.63;;
31206;SDS011;17834;52.992;8.856;2023-02-11T00:26:19;55.95;;;22.85;;
31206;SDS011;17834;52.992;8.856;2023-02-11T00:28:45;56.40;;;21.88;;
31206;SDS011;17834;52.992;8.856;2023-02-11T00:31:12;56.65;;;23.05;;
31206;SDS011;17834;52.992;8.856;2023-02-11T00:33:38;56.60;;;22.05;;
31206;SDS011;17834;52.992;8.856;2023-02-11T00:36:15;52.00;;;21.88;;
31206;SDS011;17834;52.992;8.856;2023-02-11T00:38:41;51.80;;;21.90;;
31206;SDS011;17834;52.992;8.856;2023-02-11T00:41:08;57.75;;;21.00;;
31206;SDS011;17834;52.992;8.856;2023-02-11T00:43:34;52.25;;;22.23;;
31206;SDS011;17834;52.992;8.856;2023-02-11T00:46:00;55.47;;;22.05;;
31206;SDS011;17834;52.992;8.856;2023-02-11T00:48:26;54.80;;;21.75;;
31206;SDS011;17834;52.992;8.856;2023-02-11T00:50:52;55.08;;;21.13;;
31206;SDS011;17834;52.992;8.856;2023-02-11T00:53:18;54.58;;;22.23;;
31206;SDS011;17834;52.992;8.856;2023-02-11T00:55:44;50.30;;;21.35;;
31206;SDS011;17834;52.992;8.856;2023-02-11T00:58:10;56.25;;;22.52;;
31206;SDS011;17834;52.992;8.856;2023-02-11T01:00:36;53.00;;;22.10;;
31206;SDS011;17834;52.992;8.856;2023-02-11T01:03:02;48.97;;;19.45;;
31206;SDS011;17834;52.992;8.856;2023-02-11T01:05:28;55.83;;;22.20;;
31206;SDS011;17834;52.992;8.856;2023-02-11T01:07:54;57.88;;;20.83;;
31206;SDS011;17834;52.992;8.856;2023-02-11T01:10:20;52.40;;;20.08;;
31206;SDS011;17834;52.992;8.856;2023-02-11T01:12:46;45.97;;;20.27;;
31206;SDS011;17834;52.992;8.856;2023-02-11T01:15:13;58.67;;;22.38;;
31206;SDS011;17834;52.992;8.856;2023-02-11T01:17:40;50.67;;;21.65;;
31206;SDS011;17834;52.992;8.856;2023-02-11T01:20:06;55.38;;;22.65;;
31206;SDS011;17834;52.992;8.856;2023-02-11T01:22:33;53.45;;;21.20;;
31206;SDS011;17834;52.992;8.856;2023-02-11T01:25:03;54.88;;;21.70;;
31206;SDS011;17834;52.992;8.856;2023-02-11T01:27:29;50.72;;;22.98;;
31206;SDS011;17834;52.992;8.856;2023-02-11T01:29:55;49.28;;;20.45;;
31206;SDS011;17834;52.992;8.856;2023-02-11T01:32:21;50.85;;;20.98;;
31206;SDS011;17834;52.992;8.856;2023-02-11T01:34:47;59.28;;;22.88;;
31206;SDS011;17834;52.992;8.856;2023-02-11T01:37:13;50.83;;;20.90;;
31206;SDS011;17834;52.992;8.856;2023-02-11T01:39:39;55.90;;;22.35;;
31206;SDS011;17834;52.992;8.856;2023-02-11T01:42:06;51.50;;;21.73;;
31206;SDS011;17834;52.992;8.856;2023-02-11T01:44:33;49.08;;;21.35;;
31206;SDS011;17834;52.992;8.856;2023-02-11T01:47:00;46.38;;;19.45;;
31206;SDS011;17834;52.992;8.856;2023-02-11T01:49:35;56.63;;;21.40;;
31206;SDS011;17834;52.992;8.856;2023-02-11T01:52:04;47.85;;;20.63;;
31206;SDS011;17834;52.992;8.856;2023-02-11T01:54:33;58.78;;;20.52;;
31206;SDS011;17834;52.992;8.856;2023-02-11T01:57:18;48.35;;;20.17;;
31206;SDS011;17834;52.992;8.856;2023-02-11T02:00:04;50.63;;;20.38;;
31206;SDS011;17834;52.992;8.856;2023-02-11T02:02:45;47.40;;;20.00;;
31206;SDS011;17834;52.992;8.856;2023-02-11T02:05:16;54.03;;;21.65;;
31206;SDS011;17834;52.992;8.856;2023-02-11T02:07:46;51.67;;;20.50;;
31206;SDS011;17834;52.992;8.856;2023-02-11T02:10:16;50.85;;;19.92;;
31206;SDS011;17834;52.992;8.856;2023-02-11T02:12:43;51.15;;;20.48;;
31206;SDS011;17834;52.992;8.856;2023-02-11T02:15:13;48.08;;;20.75;;
31206;SDS011;17834;52.992;8.856;2023-02-11T02:17:44;48.97;;;19.10;;
31206;SDS011;17834;52.992;8.856;2023-02-11T02:20:19;47.70;;;19.52;;
31206;SDS011;17834;52.992;8.856;2023-02-11T02:23:18;44.33;;;19.77;;
31206;SDS011;17834;52.992;8.856;2023-02-11T02:28:14;50.22;;;19.63;;
31206;SDS011;17834;52.992;8.856;2023-02-11T02:30:52;48.72;;;20.55;;
31206;SDS011;17834;52.992;8.856;2023-02-11T02:36:21;51.60;;;20.10;;
31206;SDS011;17834;52.992;8.856;2023-02-11T02:38:50;50.03;;;19.00;;
31206;SDS011;17834;52.992;8.856;2023-02-11T02:41:18;52.45;;;21.23;;
31206;SDS011;17834;52.992;8.856;2023-02-11T02:43:49;47.03;;;18.63;;
31206;SDS011;17834;52.992;8.856;2023-02-11T02:46:17;47.80;;;19.35;;
31206;SDS011;17834;52.992;8.856;2023-02-11T02:48:44;45.75;;;18.60;;
31206;SDS011;17834;52.992;8.856;2023-02-11T02:54:18;46.45;;;20.23;;
31206;SDS011;17834;52.992;8.856;2023-02-11T03:02:10;48.17;;;19.55;;
31206;SDS011;17834;52.992;8.856;2023-02-11T03:05:13;44.50;;;17.50;;
31206;SDS011;17834;52.992;8.856;2023-02-11T03:12:41;43.88;;;18.27;;
31206;SDS011;17834;52.992;8.856;2023-02-11T03:15:09;42.60;;;17.52;;
31206;SDS011;17834;52.992;8.856;2023-02-11T03:17:37;45.83;;;17.40;;
31206;SDS011;17834;52.992;8.856;2023-02-11T03:20:04;44.08;;;17.83;;
31206;SDS011;17834;52.992;8.856;2023-02-11T03:22:32;42.13;;;17.77;;
31206;SDS011;17834;52.992;8.856;2023-02-11T03:24:59;44.05;;;16.80;;
31206;SDS011;17834;52.992;8.856;2023-02-11T03:28:02;47.03;;;18.92;;
31206;SDS011;17834;52.992;8.856;2023-02-11T03:30:25;46.22;;;19.02;;
31206;SDS011;17834;52.992;8.856;2023-02-11T03:32:56;44.38;;;17.83;;
31206;SDS011;17834;52.992;8.856;2023-02-11T03:35:28;49.08;;;18.83;;
31206;SDS011;17834;52.992;8.856;2023-02-11T03:37:58;39.85;;;16.52;;
31206;SDS011;17834;52.992;8.856;2023-02-11T03:40:26;44.00;;;17.48;;
31206;SDS011;17834;52.992;8.856;2023-02-11T03:42:56;37.58;;;16.10;;
31206;SDS011;17834;52.992;8.856;2023-02-11T03:45:22;36.55;;;17.35;;
31206;SDS011;17834;52.992;8.856;2023-02-11T03:47:50;39.50;;;16.15;;
31206;SDS011;17834;52.992;8.856;2023-02-11T03:50:18;40.63;;;16.73;;
31206;SDS011;17834;52.992;8.856;2023-02-11T03:52:45;39.38;;;17.02;;
31206;SDS011;17834;52.992;8.856;2023-02-11T03:55:14;44.40;;;17.83;;
31206;SDS011;17834;52.992;8.856;2023-02-11T03:57:41;42.25;;;16.90;;
31206;SDS011;17834;52.992;8.856;2023-02-11T04:00:07;42.00;;;15.57;;
31206;SDS011;17834;52.992;8.856;2023-02-11T04:02:34;36.55;;;16.45;;
31206;SDS011;17834;52.992;8.856;2023-02-11T04:05:00;37.70;;;16.05;;
31206;SDS011;17834;52.992;8.856;2023-02-11T04:07:27;42.17;;;15.55;;
31206;SDS011;17834;52.992;8.856;2023-02-11T04:09:53;39.45;;;16.17;;
31206;SDS011;17834;52.992;8.856;2023-02-11T04:12:19;34.85;;;15.20;;
31206;SDS011;17834;52.992;8.856;2023-02-11T04:14:45;38.15;;;15.43;;
31206;SDS011;17834;52.992;8.856;2023-02-11T04:17:11;46.42;;;16.33;;
31206;SDS011;17834;52.992;8.856;2023-02-11T04:19:37;40.65;;;15.93;;
31206;SDS011;17834;52.992;8.856;2023-02-11T04:22:03;35.22;;;15.23;;
31206;SDS011;17834;52.992;8.856;2023-02-11T04:24:29;39.80;;;16.23;;
31206;SDS011;17834;52.992;8.856;2023-02-11T04:26:55;32.92;;;14.57;;
31206;SDS011;17834;52.992;8.856;2023-02-11T04:29:21;42.08;;;15.77;;
31206;SDS011;17834;52.992;8.856;2023-02-11T04:31:47;39.38;;;16.33;;
31206;SDS011;17834;52.992;8.856;2023-02-11T04:34:13;41.08;;;15.00;;
31206;SDS011;17834;52.992;8.856;2023-02-11T04:36:39;38.55;;;15.98;;
31206;SDS011;17834;52.992;8.856;2023-02-11T04:39:05;33.25;;;16.02;;
31206;SDS011;17834;52.992;8.856;2023-02-11T04:41:31;36.42;;;14.20;;
31206;SDS011;17834;52.992;8.856;2023-02-11T04:43:57;35.97;;;15.68;;
31206;SDS011;17834;52.992;8.856;2023-02-11T04:46:23;33.83;;;14.80;;
31206;SDS011;17834;52.992;8.856;2023-02-11T04:48:49;37.33;;;14.57;;
31206;SDS011;17834;52.992;8.856;2023-02-11T04:51:15;35.45;;;14.45;;
31206;SDS011;17834;52.992;8.856;2023-02-11T04:53:41;43.08;;;15.43;;
31206;SDS011;17834;52.992;8.856;2023-02-11T04:56:07;31.60;;;13.25;;
31206;SDS011;17834;52.992;8.856;2023-02-11T04:58:33;41.13;;;14.80;;
31206;SDS011;17834;52.992;8.856;2023-02-11T05:01:09;31.38;;;14.18;;
31206;SDS011;17834;52.992;8.856;2023-02-11T05:03:35;40.28;;;13.75;;
31206;SDS011;17834;52.992;8.856;2023-02-11T05:06:02;34.85;;;14.20;;
31206;SDS011;17834;52.992;8.856;2023-02-11T05:08:28;36.72;;;15.15;;
31206;SDS011;17834;52.992;8.856;2023-02-11T05:10:54;40.10;;;13.23;;
31206;SDS011;17834;52.992;8.856;2023-02-11T05:13:20;33.72;;;13.23;;
31206;SDS011;17834;52.992;8.856;2023-02-11T05:15:46;35.15;;;13.82;;
31206;SDS011;17834;52.992;8.856;2023-02-11T05:18:12;34.75;;;14.25;;
31206;SDS011;17834;52.992;8.856;2023-02-11T05:20:41;40.35;;;12.90;;
31206;SDS011;17834;52.992;8.856;2023-02-11T05:23:07;35.35;;;14.10;;
31206;SDS011;17834;52.992;8.856;2023-02-11T05:25:33;29.35;;;12.38;;
31206;SDS011;17834;52.992;8.856;2023-02-11T05:27:59;31.83;;;13.30;;
31206;SDS011;17834;52.992;8.856;2023-02-11T05:30:25;31.00;;;12.82;;
31206;SDS011;17834;52.992;8.856;2023-02-11T05:32:51;32.88;;;12.60;;
31206;SDS011;17834;52.992;8.856;2023-02-11T05:35:17;30.58;;;12.77;;
31206;SDS011;17834;52.992;8.856;2023-02-11T05:37:43;30.33;;;13.63;;
31206;SDS011;17834;52.992;8.856;2023-02-11T05:40:09;31.30;;;12.57;;
31206;SDS011;17834;52.992;8.856;2023-02-11T05:42:35;36.95;;;13.68;;
31206;SDS011;17834;52.992;8.856;2023-02-11T05:45:01;34.28;;;14.77;;
31206;SDS011;17834;52.992;8.856;2023-02-11T05:47:28;34.25;;;13.23;;
31206;SDS011;17834;52.992;8.856;2023-02-11T05:49:54;34.40;;;13.23;;
31206;SDS011;17834;52.992;8.856;2023-02-11T05:52:20;36.92;;;14.27;;
31206;SDS011;17834;52.992;8.856;2023-02-11T05:54:46;30.65;;;11.68;;
31206;SDS011;17834;52.992;8.856;2023-02-11T05:57:13;31.40;;;12.77;;
31206;SDS011;17834;52.992;8.856;2023-02-11T05:59:39;41.88;;;14.48;;
31206;SDS011;17834;52.992;8.856;2023-02-11T06:02:05;36.05;;;13.02;;
31206;SDS011;17834;52.992;8.856;2023-02-11T06:04:32;31.20;;;13.25;;
31206;SDS011;17834;52.992;8.856;2023-02-11T06:06:58;35.22;;;12.88;;
31206;SDS011;17834;52.992;8.856;2023-02-11T06:09:24;30.85;;;13.30;;
31206;SDS011;17834;52.992;8.856;2023-02-11T06:11:50;35.38;;;12.98;;
31206;SDS011;17834;52.992;8.856;2023-02-11T06:14:16;35.92;;;13.05;;
31206;SDS011;17834;52.992;8.856;2023-02-11T06:16:42;34.28;;;13.75;;
31206;SDS011;17834;52.992;8.856;2023-02-11T06:19:08;29.45;;;12.18;;
31206;SDS011;17834;52.992;8.856;2023-02-11T06:21:34;33.90;;;13.75;;
31206;SDS011;17834;52.992;8.856;2023-02-11T06:24:00;36.92;;;13.98;;
31206;SDS011;17834;52.992;8.856;2023-02-11T06:26:26;34.03;;;13.40;;
31206;SDS011;17834;52.992;8.856;2023-02-11T06:28:51;34.00;;;13.65;;
31206;SDS011;17834;52.992;8.856;2023-02-11T06:31:17;30.05;;;11.95;;
31206;SDS011;17834;52.992;8.856;2023-02-11T06:33:43;39.17;;;15.80;;
31206;SDS011;17834;52.992;8.856;2023-02-11T06:36:14;31.13;;;12.80;;
31206;SDS011;17834;52.992;8.856;2023-02-11T06:38:40;36.50;;;14.18;;
31206;SDS011;17834;52.992;8.856;2023-02-11T06:41:14;35.60;;;14.25;;
31206;SDS011;17834;52.992;8.856;2023-02-11T06:43:40;36.42;;;13.20;;
31206;SDS011;17834;52.992;8.856;2023-02-11T06:46:06;26.02;;;11.63;;
31206;SDS011;17834;52.992;8.856;2023-02-11T06:48:32;34.80;;;14.02;;
31206;SDS011;17834;52.992;8.856;2023-02-11T06:51:02;29.85;;;13.68;;
31206;SDS011;17834;52.992;8.856;2023-02-11T06:53:29;37.05;;;13.80;;
31206;SDS011;17834;52.992;8.856;2023-02-11T06:55:55;33.58;;;13.52;;
31206;SDS011;17834;52.992;8.856;2023-02-11T06:58:21;33.97;;;14.10;;
31206;SDS011;17834;52.992;8.856;2023-02-11T07:00:47;37.60;;;16.02;;
31206;SDS011;17834;52.992;8.856;2023-02-11T07:03:13;38.58;;;14.65;;
31206;SDS011;17834;52.992;8.856;2023-02-11T07:05:41;34.22;;;14.23;;
31206;SDS011;17834;52.992;8.856;2023-02-11T07:08:07;34.22;;;13.52;;
31206;SDS011;17834;52.992;8.856;2023-02-11T07:10:33;31.65;;;13.63;;
31206;SDS011;17834;52.992;8.856;2023-02-11T07:12:59;33.45;;;14.57;;
31206;SDS011;17834;52.992;8.856;2023-02-11T07:15:25;31.50;;;14.27;;
31206;SDS011;17834;52.992;8.856;2023-02-11T07:17:51;34.30;;;14.90;;
31206;SDS011;17834;52.992;8.856;2023-02-11T07:20:17;35.42;;;14.55;;
31206;SDS011;17834;52.992;8.856;2023-02-11T07:22:43;34.42;;;13.52;;
31206;SDS011;17834;52.992;8.856;2023-02-11T07:25:09;35.75;;;14.35;;
31206;SDS011;17834;52.992;8.856;2023-02-11T07:27:35;43.03;;;13.77;;
31206;SDS011;17834;52.992;8.856;2023-02-11T07:30:02;28.95;;;14.23;;
31206;SDS011;17834;52.992;8.856;2023-02-11T07:32:28;36.35;;;13.68;;
31206;SDS011;17834;52.992;8.856;2023-02-11T07:34:54;37.47;;;15.40;;
31206;SDS011;17834;52.992;8.856;2023-02-11T07:37:20;34.97;;;14.23;;
31206;SDS011;17834;52.992;8.856;2023-02-11T07:39:46;40.67;;;14.25;;
31206;SDS011;17834;52.992;8.856;2023-02-11T07:42:12;31.27;;;13.57;;
31206;SDS011;17834;52.992;8.856;2023-02-11T07:44:38;41.67;;;14.05;;
31206;SDS011;17834;52.992;8.856;2023-02-11T07:47:04;38.25;;;13.15;;
31206;SDS011;17834;52.992;8.856;2023-02-11T07:49:30;33.58;;;13.18;;
31206;SDS011;17834;52.992;8.856;2023-02-11T07:51:56;31.63;;;13.65;;
31206;SDS011;17834;52.992;8.856;2023-02-11T07:54:22;29.55;;;14.27;;
31206;SDS011;17834;52.992;8.856;2023-02-11T07:56:48;34.72;;;13.82;;
31206;SDS011;17834;52.992;8.856;2023-02-11T07:59:14;31.08;;;12.25;;
31206;SDS011;17834;52.992;8.856;2023-02-11T08:01:40;25.15;;;12.32;;
31206;SDS011;17834;52.992;8.856;2023-02-11T08:04:06;30.25;;;13.48;;
31206;SDS011;17834;52.992;8.856;2023-02-11T08:06:33;28.27;;;13.55;;
31206;SDS011;17834;52.992;8.856;2023-02-11T08:09:10;28.98;;;11.70;;
31206;SDS011;17834;52.992;8.856;2023-02-11T08:11:38;32.10;;;11.95;;
31206;SDS011;17834;52.992;8.856;2023-02-11T08:14:04;29.60;;;13.13;;
31206;SDS011;17834;52.992;8.856;2023-02-11T08:16:32;27.80;;;12.18;;
31206;SDS011;17834;52.992;8.856;2023-02-11T08:18:59;32.22;;;13.32;;
31206;SDS011;17834;52.992;8.856;2023-02-11T08:21:25;29.13;;;12.43;;
31206;SDS011;17834;52.992;8.856;2023-02-11T08:23:53;37.75;;;14.35;;
31206;SDS011;17834;52.992;8.856;2023-02-11T08:26:21;32.42;;;13.43;;
31206;SDS011;17834;52.992;8.856;2023-02-11T08:28:47;26.63;;;14.00;;
31206;SDS011;17834;52.992;8.856;2023-02-11T08:31:15;29.83;;;13.13;;
31206;SDS011;17834;52.992;8.856;2023-02-11T08:33:41;28.85;;;12.65;;
31206;SDS011;17834;52.992;8.856;2023-02-11T08:36:14;28.33;;;12.20;;
31206;SDS011;17834;52.992;8.856;2023-02-11T08:38:41;29.90;;;11.90;;
31206;SDS011;17834;52.992;8.856;2023-02-11T08:41:07;30.10;;;13.77;;
31206;SDS011;17834;52.992;8.856;2023-02-11T08:43:33;34.65;;;13.32;;
31206;SDS011;17834;52.992;8.856;2023-02-11T08:46:00;33.13;;;13.48;;
31206;SDS011;17834;52.992;8.856;2023-02-11T08:48:26;31.83;;;12.95;;
31206;SDS011;17834;52.992;8.856;2023-02-11T08:50:53;30.08;;;12.63;;
31206;SDS011;17834;52.992;8.856;2023-02-11T08:53:19;29.05;;;13.98;;
31206;SDS011;17834;52.992;8.856;2023-02-11T08:55:51;32.15;;;13.63;;
31206;SDS011;17834;52.992;8.856;2023-02-11T08:58:18;30.88;;;12.68;;
31206;SDS011;17834;52.992;8.856;2023-02-11T09:00:44;29.42;;;13.63;;
31206;SDS011;17834;52.992;8.856;2023-02-11T09:03:10;26.15;;;12.38;;
31206;SDS011;17834;52.992;8.856;2023-02-11T09:05:40;30.55;;;13.13;;
31206;SDS011;17834;52.992;8.856;2023-02-11T09:08:06;35.55;;;13.02;;
31206;SDS011;17834;52.992;8.856;2023-02-11T09:10:32;24.98;;;12.25;;
31206;SDS011;17834;52.992;8.856;2023-02-11T09:12:59;28.25;;;12.10;;
31206;SDS011;17834;52.992;8.856;2023-02-11T09:15:25;31.38;;;12.07;;
31206;SDS011;17834;52.992;8.856;2023-02-11T09:17:51;26.90;;;11.18;;
31206;SDS011;17834;52.992;8.856;2023-02-11T09:20:17;25.83;;;11.77;;
31206;SDS011;17834;52.992;8.856;2023-02-11T09:22:43;25.63;;;11.88;;
31206;SDS011;17834;52.992;8.856;2023-02-11T09:25:09;29.67;;;12.00;;
31206;SDS011;17834;52.992;8.856;2023-02-11T09:27:35;32.42;;;13.48;;
31206;SDS011;17834;52.992;8.856;2023-02-11T09:30:01;24.67;;;11.15;;
31206;SDS011;17834;52.992;8.856;2023-02-11T09:32:27;26.98;;;12.88;;
31206;SDS011;17834;52.992;8.856;2023-02-11T09:34:53;32.40;;;13.05;;
31206;SDS011;17834;52.992;8.856;2023-02-11T09:37:19;27.17;;;11.57;;
31206;SDS011;17834;52.992;8.856;2023-02-11T09:39:45;24.95;;;11.15;;
31206;SDS011;17834;52.992;8.856;2023-02-11T09:44:50;27.70;;;11.95;;
31206;SDS011;17834;52.992;8.856;2023-02-11T09:47:24;27.60;;;11.27;;
31206;SDS011;17834;52.992;8.856;2023-02-11T09:49:52;27.95;;;12.30;;
31206;SDS011;17834;52.992;8.856;2023-02-11T09:55:20;35.33;;;13.00;;
31206;SDS011;17834;52.992;8.856;2023-02-11T09:57:46;28.48;;;12.30;;
31206;SDS011;17834;52.992;8.856;2023-02-11T10:00:20;25.88;;;12.63;;
31206;SDS011;17834;52.992;8.856;2023-02-11T10:02:58;29.88;;;12.20;;
31206;SDS011;17834;52.992;8.856;2023-02-11T10:05:30;28.65;;;12.63;;
31206;SDS011;17834;52.992;8.856;2023-02-11T10:08:17;28.70;;;12.18;;
31206;SDS011;17834;52.992;8.856;2023-02-11T10:15:48;31.75;;;12.65;;
31206;SDS011;17834;52.992;8.856;2023-02-11T10:18:29;28.05;;;11.50;;
31206;SDS011;17834;52.992;8.856;2023-02-11T10:23:45;30.15;;;10.82;;
31206;SDS011;17834;52.992;8.856;2023-02-11T10:26:16;23.92;;;11.40;;
31206;SDS011;17834;52.992;8.856;2023-02-11T10:28:49;26.50;;;10.93;;
31206;SDS011;17834;52.992;8.856;2023-02-11T10:31:19;26.67;;;11.10;;
31206;SDS011;17834;52.992;8.856;2023-02-11T10:33:57;23.25;;;9.98;;
31206;SDS011;17834;52.992;8.856;2023-02-11T10:36:28;25.13;;;11.13;;
31206;SDS011;17834;52.992;8.856;2023-02-11T10:38:54;24.85;;;10.18;;
31206;SDS011;17834;52.992;8.856;2023-02-11T10:41:27;24.67;;;10.27;;
31206;SDS011;17834;52.992;8.856;2023-02-11T10:43:55;22.98;;;10.60;;
31206;SDS011;17834;52.992;8.856;2023-02-11T10:46:21;24.83;;;10.15;;
31206;SDS011;17834;52.992;8.856;2023-02-11T10:48:50;20.77;;;9.40;;
31206;SDS011;17834;52.992;8.856;2023-02-11T10:51:21;23.95;;;10.77;;
31206;SDS011;17834;52.992;8.856;2023-02-11T10:56:29;26.95;;;10.85;;
31206;SDS011;17834;52.992;8.856;2023-02-11T10:58:59;24.15;;;9.88;;
31206;SDS011;17834;52.992;8.856;2023-02-11T11:04:04;24.77;;;11.18;;
31206;SDS011;17834;52.992;8.856;2023-02-11T11:06:31;24.75;;;10.75;;
31206;SDS011;17834;52.992;8.856;2023-02-11T11:08:57;22.98;;;10.80;;
31206;SDS011;17834;52.992;8.856;2023-02-11T11:11:24;22.52;;;10.30;;
31206;SDS011;17834;52.992;8.856;2023-02-11T11:16:26;23.08;;;10.80;;
31206;SDS011;17834;52.992;8.856;2023-02-11T11:19:13;27.60;;;10.63;;
31206;SDS011;17834;52.992;8.856;2023-02-11T11:22:12;26.77;;;10.82;;
31206;SDS011;17834;52.992;8.856;2023-02-11T11:24:32;28.10;;;10.50;;
31206;SDS011;17834;52.992;8.856;2023-02-11T11:26:59;24.45;;;9.70;;
31206;SDS011;17834;52.992;8.856;2023-02-11T11:31:58;25.35;;;10.25;;
31206;SDS011;17834;52.992;8.856;2023-02-11T11:36:51;21.40;;;9.75;;
31206;SDS011;17834;52.992;8.856;2023-02-11T11:41:56;24.58;;;10.50;;
31206;SDS011;17834;52.992;8.856;2023-02-11T11:47:05;21.83;;;9.30;;
31206;SDS011;17834;52.992;8.856;2023-02-11T11:49:33;20.67;;;10.63;;
31206;SDS011;17834;52.992;8.856;2023-02-11T11:54:38;23.30;;;10.07;;
31206;SDS011;17834;52.992;8.856;2023-02-11T11:57:10;28.08;;;10.15;;
31206;SDS011;17834;52.992;8.856;2023-02-11T11:59:37;21.23;;;9.40;;
31206;SDS011;17834;52.992;8.856;2023-02-11T12:02:09;18.80;;;9.50;;
31206;SDS011;17834;52.992;8.856;2023-02-11T12:04:49;18.63;;;9.18;;
31206;SDS011;17834;52.992;8.856;2023-02-11T12:07:29;18.65;;;8.40;;
31206;SDS011;17834;52.992;8.856;2023-02-11T12:10:03;24.30;;;10.43;;
31206;SDS011;17834;52.992;8.856;2023-02-11T12:17:37;21.00;;;10.05;;
31206;SDS011;17834;52.992;8.856;2023-02-11T12:20:15;23.58;;;9.73;;
31206;SDS011;17834;52.992;8.856;2023-02-11T12:25:17;23.40;;;9.65;;
31206;SDS011;17834;52.992;8.856;2023-02-11T12:28:30;26.20;;;9.93;;
31206;SDS011;17834;52.992;8.856;2023-02-11T12:33:09;24.88;;;10.25;;
31206;SDS011;17834;52.992;8.856;2023-02-11T12:38:20;21.77;;;9.85;;
31206;SDS011;17834;52.992;8.856;2023-02-11T12:40:56;22.47;;;10.37;;
31206;SDS011;17834;52.992;8.856;2023-02-11T12:43:36;27.00;;;10.80;;
31206;SDS011;17834;52.992;8.856;2023-02-11T12:48:35;25.40;;;9.70;;
31206;SDS011;17834;52.992;8.856;2023-02-11T12:51:10;27.45;;;9.80;;
31206;SDS011;17834;52.992;8.856;2023-02-11T12:53:42;25.48;;;9.70;;
31206;SDS011;17834;52.992;8.856;2023-02-11T12:56:16;25.17;;;10.15;;
31206;SDS011;17834;52.992;8.856;2023-02-11T12:58:44;19.15;;;8.82;;
31206;SDS011;17834;52.992;8.856;2023-02-11T13:01:14;25.52;;;8.75;;
31206;SDS011;17834;52.992;8.856;2023-02-11T13:03:42;22.92;;;9.65;;
31206;SDS011;17834;52.992;8.856;2023-02-11T13:06:11;23.25;;;9.05;;
31206;SDS011;17834;52.992;8.856;2023-02-11T13:08:39;25.65;;;9.82;;
31206;SDS011;17834;52.992;8.856;2023-02-11T13:11:10;20.05;;;8.65;;
31206;SDS011;17834;52.992;8.856;2023-02-11T13:13:45;16.60;;;8.15;;
31206;SDS011;17834;52.992;8.856;2023-02-11T13:16:16;27.52;;;10.02;;
31206;SDS011;17834;52.992;8.856;2023-02-11T13:18:44;22.23;;;8.77;;
31206;SDS011;17834;52.992;8.856;2023-02-11T13:23:48;26.10;;;9.15;;
31206;SDS011;17834;52.992;8.856;2023-02-11T13:29:14;23.38;;;9.13;;
31206;SDS011;17834;52.992;8.856;2023-02-11T13:31:43;22.35;;;8.75;;
31206;SDS011;17834;52.992;8.856;2023-02-11T13:34:52;16.70;;;6.57;;
31206;SDS011;17834;52.992;8.856;2023-02-11T13:37:25;18.02;;;8.38;;
31206;SDS011;17834;52.992;8.856;2023-02-11T13:40:06;21.88;;;8.02;;
31206;SDS011;17834;52.992;8.856;2023-02-11T13:42:33;23.55;;;8.48;;
31206;SDS011;17834;52.992;8.856;2023-02-11T13:44:59;22.58;;;8.40;;
31206;SDS011;17834;52.992;8.856;2023-02-11T13:47:27;28.08;;;10.05;;
31206;SDS011;17834;52.992;8.856;2023-02-11T13:49:54;23.80;;;6.82;;
31206;SDS011;17834;52.992;8.856;2023-02-11T13:52:22;22.83;;;7.85;;
31206;SDS011;17834;52.992;8.856;2023-02-11T13:54:50;23.02;;;8.13;;
31206;SDS011;17834;52.992;8.856;2023-02-11T13:57:21;19.75;;;7.82;;
31206;SDS011;17834;52.992;8.856;2023-02-11T13:59:49;19.00;;;7.28;;
31206;SDS011;17834;52.992;8.856;2023-02-11T14:08:10;19.63;;;6.78;;
31206;SDS011;17834;52.992;8.856;2023-02-11T14:10:57;23.58;;;7.95;;
31206;SDS011;17834;52.992;8.856;2023-02-11T14:16:32;17.23;;;7.35;;
31206;SDS011;17834;52.992;8.856;2023-02-11T14:18:56;19.77;;;7.38;;
31206;SDS011;17834;52.992;8.856;2023-02-11T14:31:53;15.70;;;7.20;;
31206;SDS011;17834;52.992;8.856;2023-02-11T14:37:10;23.08;;;7.85;;
31206;SDS011;17834;52.992;8.856;2023-02-11T14:39:49;20.27;;;6.80;;
31206;SDS011;17834;52.992;8.856;2023-02-11T14:42:19;23.00;;;7.28;;
31206;SDS011;17834;52.992;8.856;2023-02-11T14:44:49;19.83;;;7.45;;
31206;SDS011;17834;52.992;8.856;2023-02-11T14:47:20;20.88;;;7.15;;
31206;SDS011;17834;52.992;8.856;2023-02-11T14:49:47;20.90;;;7.38;;
31206;SDS011;17834;52.992;8.856;2023-02-11T14:52:25;15.82;;;6.70;;
31206;SDS011;17834;52.992;8.856;2023-02-11T14:54:55;16.90;;;6.55;;
31206;SDS011;17834;52.992;8.856;2023-02-11T14:57:22;21.90;;;7.07;;
31206;SDS011;17834;52.992;8.856;2023-02-11T14:59:55;23.67;;;7.22;;
31206;SDS011;17834;52.992;8.856;2023-02-11T15:02:36;19.63;;;6.35;;
31206;SDS011;17834;52.992;8.856;2023-02-11T15:05:22;18.95;;;7.20;;
31206;SDS011;17834;52.992;8.856;2023-02-11T15:07:53;19.20;;;6.70;;
31206;SDS011;17834;52.992;8.856;2023-02-11T15:10:34;18.90;;;6.45;;
31206;SDS011;17834;52.992;8.856;2023-02-11T15:13:01;24.50;;;6.32;;
31206;SDS011;17834;52.992;8.856;2023-02-11T15:15:27;20.20;;;6.13;;
31206;SDS011;17834;52.992;8.856;2023-02-11T15:17:54;12.98;;;6.10;;
31206;SDS011;17834;52.992;8.856;2023-02-11T15:20:21;21.42;;;6.90;;
31206;SDS011;17834;52.992;8.856;2023-02-11T15:22:49;20.13;;;7.05;;
31206;SDS011;17834;52.992;8.856;2023-02-11T15:25:17;18.15;;;6.93;;
31206;SDS011;17834;52.992;8.856;2023-02-11T15:27:45;16.20;;;6.68;;
31206;SDS011;17834;52.992;8.856;2023-02-11T15:32:49;24.85;;;6.75;;
31206;SDS011;17834;52.992;8.856;2023-02-11T15:35:16;17.35;;;5.75;;
31206;SDS011;17834;52.992;8.856;2023-02-11T15:37:42;19.98;;;6.78;;
31206;SDS011;17834;52.992;8.856;2023-02-11T15:40:14;25.45;;;6.65;;
31206;SDS011;17834;52.992;8.856;2023-02-11T15:42:59;17.98;;;6.28;;
31206;SDS011;17834;52.992;8.856;2023-02-11T15:48:08;16.63;;;6.18;;
31206;SDS011;17834;52.992;8.856;2023-02-11T15:50:36;23.63;;;7.68;;
31206;SDS011;17834;52.992;8.856;2023-02-11T15:53:28;18.98;;;5.65;;
31206;SDS011;17834;52.992;8.856;2023-02-11T15:58:16;19.40;;;6.28;;
31206;SDS011;17834;52.992;8.856;2023-02-11T16:00:46;17.73;;;6.38;;
31206;SDS011;17834;52.992;8.856;2023-02-11T16:03:23;19.33;;;5.88;;
31206;SDS011;17834;52.992;8.856;2023-02-11T16:05:51;18.02;;;6.22;;
31206;SDS011;17834;52.992;8.856;2023-02-11T16:08:26;15.80;;;6.22;;
31206;SDS011;17834;52.992;8.856;2023-02-11T16:11:03;19.70;;;6.32;;
31206;SDS011;17834;52.992;8.856;2023-02-11T16:13:42;17.38;;;6.20;;
31206;SDS011;17834;52.992;8.856;2023-02-11T16:16:18;21.20;;;5.65;;
31206;SDS011;17834;52.992;8.856;2023-02-11T16:18:49;20.40;;;6.53;;